BCS5GA EBBR-BKPR
Flight info
| Callsign | BCS5GA |
|---|---|
| Flight time | N/A |
| Altitude | 35000 |
| Route | SOPOK Y863 OGLOR DCT EMGOD L607 ULNOK DCT VIBOM DCT NOMBO DCT RIDAR DCT RADIZ DCT MONID DCT ETOBI DCT IDASI DCT RETRA DCT RINAV DCT ARBER ARBER1D |
| Aircraft | A306/H-SDE3FGHIRWY/LB1 |
Departure
| Time | N/A |
|---|---|
| Airport | Brussels Airport (EBBR) |
Arrival
| Time | 2026-05-04 00:12 |
|---|---|
| Airport | Priština Adem Jashari International Airport (BKPR) |
| Time | Latitude | Longitude | Altitude | Speed | Heading |
|---|---|---|---|---|---|
| 2026-05-03 22:39 | 48.67284 | 10.67727 | 35042 ft | 456 kts | 139° |
| 2026-05-03 22:40 | 48.65024 | 10.71092 | 35044 ft | 456 kts | 139° |
| 2026-05-03 22:40 | 48.60503 | 10.77813 | 35037 ft | 456 kts | 139° |
| 2026-05-03 22:41 | 48.56295 | 10.85012 | 35027 ft | 458 kts | 133° |
| 2026-05-03 22:41 | 48.52274 | 10.92420 | 35037 ft | 459 kts | 132° |
| 2026-05-03 22:42 | 48.48245 | 10.99921 | 35052 ft | 460 kts | 132° |
| 2026-05-03 22:42 | 48.44203 | 11.07417 | 35037 ft | 460 kts | 132° |
| 2026-05-03 22:43 | 48.40159 | 11.14876 | 35044 ft | 460 kts | 132° |
| 2026-05-03 22:43 | 48.36107 | 11.22321 | 35034 ft | 460 kts | 132° |
| 2026-05-03 22:44 | 48.32063 | 11.29726 | 35033 ft | 462 kts | 132° |
| 2026-05-03 22:44 | 48.27975 | 11.37193 | 35038 ft | 463 kts | 132° |
| 2026-05-03 22:45 | 48.23881 | 11.44655 | 35041 ft | 463 kts | 132° |
| 2026-05-03 22:45 | 48.19778 | 11.52112 | 35039 ft | 463 kts | 132° |
| 2026-05-03 22:46 | 48.15672 | 11.59551 | 35034 ft | 463 kts | 132° |
| 2026-05-03 22:46 | 48.11573 | 11.66957 | 35016 ft | 463 kts | 132° |
| 2026-05-03 22:47 | 48.07450 | 11.74388 | 35016 ft | 464 kts | 132° |
| 2026-05-03 22:47 | 48.03322 | 11.81805 | 35009 ft | 464 kts | 132° |
| 2026-05-03 22:48 | 47.99190 | 11.89210 | 35018 ft | 464 kts | 132° |
| 2026-05-03 22:48 | 47.95048 | 11.96612 | 35003 ft | 465 kts | 132° |
| 2026-05-03 22:49 | 47.90915 | 12.03977 | 35017 ft | 466 kts | 132° |
| 2026-05-03 22:49 | 47.86784 | 12.11320 | 35007 ft | 466 kts | 132° |
| 2026-05-03 22:50 | 47.82609 | 12.18721 | 35012 ft | 466 kts | 132° |
| 2026-05-03 22:50 | 47.78429 | 12.26110 | 35007 ft | 466 kts | 132° |
| 2026-05-03 22:51 | 47.74270 | 12.33441 | 35007 ft | 466 kts | 132° |
| 2026-05-03 22:51 | 47.70081 | 12.40806 | 35018 ft | 466 kts | 132° |
| 2026-05-03 22:52 | 47.65886 | 12.48160 | 35016 ft | 466 kts | 132° |
| 2026-05-03 22:52 | 47.61658 | 12.55443 | 35012 ft | 465 kts | 135° |
| 2026-05-03 22:53 | 47.57212 | 12.62315 | 35015 ft | 464 kts | 137° |
| 2026-05-03 22:53 | 47.52637 | 12.69125 | 35015 ft | 466 kts | 136° |
| 2026-05-03 22:54 | 47.48066 | 12.75965 | 35020 ft | 467 kts | 136° |
| 2026-05-03 22:54 | 47.43542 | 12.82773 | 35024 ft | 467 kts | 136° |
| 2026-05-03 22:55 | 47.38988 | 12.89632 | 35043 ft | 467 kts | 136° |
| 2026-05-03 22:55 | 47.34430 | 12.96479 | 35033 ft | 467 kts | 136° |
| 2026-05-03 22:56 | 47.29867 | 13.03313 | 35050 ft | 467 kts | 136° |
| 2026-05-03 22:56 | 47.25292 | 13.10145 | 35041 ft | 468 kts | 136° |
| 2026-05-03 22:57 | 47.20717 | 13.16960 | 35066 ft | 468 kts | 136° |
| 2026-05-03 22:57 | 47.16160 | 13.23722 | 35067 ft | 468 kts | 136° |
| 2026-05-03 22:58 | 47.11571 | 13.30529 | 35069 ft | 468 kts | 136° |
| 2026-05-03 22:58 | 47.06974 | 13.37324 | 35076 ft | 469 kts | 136° |
| 2026-05-03 22:59 | 47.02368 | 13.44115 | 35077 ft | 469 kts | 136° |
| 2026-05-03 22:59 | 46.97793 | 13.50841 | 35092 ft | 468 kts | 136° |
| 2026-05-03 23:00 | 46.93190 | 13.57591 | 35085 ft | 468 kts | 136° |
| 2026-05-03 23:00 | 46.88579 | 13.64338 | 35097 ft | 468 kts | 136° |
| 2026-05-03 23:01 | 46.83974 | 13.71054 | 35088 ft | 468 kts | 136° |
| 2026-05-03 23:01 | 46.79365 | 13.77760 | 35091 ft | 467 kts | 136° |
| 2026-05-03 23:02 | 46.74783 | 13.84412 | 35079 ft | 467 kts | 136° |
| 2026-05-03 23:02 | 46.70149 | 13.91121 | 35082 ft | 470 kts | 136° |
| 2026-05-03 23:03 | 46.65500 | 13.97835 | 35105 ft | 470 kts | 136° |
| 2026-05-03 23:03 | 46.60852 | 14.04530 | 35083 ft | 470 kts | 136° |
| 2026-05-03 23:04 | 46.56200 | 14.11214 | 35105 ft | 470 kts | 136° |
| 2026-05-03 23:04 | 46.51538 | 14.17895 | 35104 ft | 470 kts | 136° |
| 2026-05-03 23:05 | 46.46868 | 14.24569 | 35098 ft | 472 kts | 136° |
| 2026-05-03 23:05 | 46.42210 | 14.31209 | 35093 ft | 472 kts | 136° |
| 2026-05-03 23:05 | 46.39876 | 14.34531 | 34708 ft | 468 kts | 136° |
| 2026-05-03 23:06 | 46.37550 | 14.37837 | 34287 ft | 470 kts | 136° |
| 2026-05-03 23:06 | 46.35210 | 14.41160 | 34140 ft | 473 kts | 136° |
| 2026-05-03 23:06 | 46.32858 | 14.44494 | 34128 ft | 474 kts | 136° |
| 2026-05-03 23:07 | 46.28136 | 14.51175 | 34130 ft | 475 kts | 136° |
| 2026-05-03 23:07 | 46.23405 | 14.57852 | 34128 ft | 476 kts | 135° |
| 2026-05-03 23:08 | 46.18658 | 14.64535 | 34128 ft | 477 kts | 135° |
| 2026-05-03 23:08 | 46.13899 | 14.71219 | 34120 ft | 476 kts | 135° |
| 2026-05-03 23:09 | 46.09178 | 14.77831 | 34115 ft | 476 kts | 136° |
| 2026-05-03 23:09 | 46.04411 | 14.84490 | 34107 ft | 477 kts | 135° |
| 2026-05-03 23:10 | 45.99632 | 14.91151 | 34101 ft | 479 kts | 135° |
| 2026-05-03 23:10 | 45.94850 | 14.97798 | 34101 ft | 479 kts | 135° |
| 2026-05-03 23:11 | 45.90049 | 15.04455 | 34096 ft | 479 kts | 136° |
| 2026-05-03 23:11 | 45.85247 | 15.11096 | 34095 ft | 479 kts | 136° |
| 2026-05-03 23:12 | 45.81253 | 15.16605 | 34096 ft | 481 kts | 135° |
| 2026-05-03 23:12 | 45.75626 | 15.24351 | 34093 ft | 483 kts | 135° |
| 2026-05-03 23:13 | 45.71568 | 15.29922 | 34093 ft | 483 kts | 135° |
| 2026-05-03 23:13 | 45.66712 | 15.36573 | 34091 ft | 483 kts | 135° |
| 2026-05-03 23:14 | 45.61856 | 15.43208 | 34090 ft | 483 kts | 136° |
| 2026-05-03 23:14 | 45.57032 | 15.49782 | 34092 ft | 483 kts | 136° |
| 2026-05-03 23:15 | 45.52171 | 15.56389 | 34095 ft | 483 kts | 136° |
| 2026-05-03 23:15 | 45.47306 | 15.62987 | 34094 ft | 483 kts | 136° |
| 2026-05-03 23:16 | 45.42432 | 15.69578 | 34101 ft | 483 kts | 136° |
| 2026-05-03 23:16 | 45.37529 | 15.76193 | 34296 ft | 487 kts | 135° |
| 2026-05-03 23:16 | 45.35075 | 15.79499 | 34627 ft | 485 kts | 135° |
| 2026-05-03 23:17 | 45.32691 | 15.82706 | 34939 ft | 484 kts | 135° |
| 2026-05-03 23:17 | 45.30240 | 15.85998 | 35077 ft | 485 kts | 136° |
| 2026-05-03 23:17 | 45.27791 | 15.89284 | 35093 ft | 484 kts | 136° |
| 2026-05-03 23:18 | 45.22930 | 15.95794 | 35094 ft | 484 kts | 136° |
| 2026-05-03 23:18 | 45.18022 | 16.02349 | 35103 ft | 485 kts | 135° |
| 2026-05-03 23:19 | 45.13106 | 16.08899 | 35105 ft | 485 kts | 135° |
| 2026-05-03 23:19 | 45.08176 | 16.15452 | 35103 ft | 486 kts | 135° |
| 2026-05-03 23:20 | 45.03242 | 16.21994 | 35108 ft | 485 kts | 136° |
| 2026-05-03 23:20 | 44.98341 | 16.28477 | 35111 ft | 486 kts | 135° |
| 2026-05-03 23:21 | 44.93735 | 16.35479 | 35110 ft | 486 kts | 130° |
| 2026-05-03 23:21 | 44.89283 | 16.42671 | 35114 ft | 485 kts | 129° |
| 2026-05-03 23:22 | 44.82670 | 16.53437 | 35121 ft | 486 kts | 129° |
| 2026-05-03 23:22 | 44.78237 | 16.60614 | 35124 ft | 485 kts | 129° |
| 2026-05-03 23:23 | 44.73796 | 16.67775 | 35122 ft | 485 kts | 129° |
| 2026-05-03 23:23 | 44.69344 | 16.74931 | 35127 ft | 487 kts | 129° |
| 2026-05-03 23:24 | 44.64908 | 16.82042 | 35123 ft | 487 kts | 129° |
| 2026-05-03 23:24 | 44.60438 | 16.89192 | 35136 ft | 486 kts | 129° |
| 2026-05-03 23:25 | 44.55962 | 16.96331 | 35146 ft | 486 kts | 129° |
| 2026-05-03 23:25 | 44.51485 | 17.03451 | 35144 ft | 486 kts | 129° |
| 2026-05-03 23:26 | 44.46900 | 17.10349 | 35148 ft | 488 kts | 137° |
| 2026-05-03 23:26 | 44.41567 | 17.16288 | 35159 ft | 490 kts | 141° |
| 2026-05-03 23:27 | 44.36095 | 17.21977 | 35163 ft | 490 kts | 142° |
| 2026-05-03 23:27 | 44.30592 | 17.27622 | 35169 ft | 490 kts | 142° |
| 2026-05-03 23:28 | 44.25121 | 17.33248 | 35169 ft | 490 kts | 142° |
| 2026-05-03 23:28 | 44.19630 | 17.38907 | 35174 ft | 491 kts | 141° |
| 2026-05-03 23:29 | 44.14117 | 17.44582 | 35168 ft | 493 kts | 141° |
| 2026-05-03 23:29 | 44.08634 | 17.50212 | 35169 ft | 493 kts | 142° |
| 2026-05-03 23:30 | 44.03101 | 17.55879 | 35162 ft | 493 kts | 142° |
| 2026-05-03 23:30 | 43.97567 | 17.61533 | 35178 ft | 494 kts | 141° |
| 2026-05-03 23:31 | 43.92042 | 17.67166 | 35173 ft | 496 kts | 141° |
| 2026-05-03 23:31 | 43.86462 | 17.72838 | 35171 ft | 497 kts | 141° |
| 2026-05-03 23:32 | 43.80887 | 17.78493 | 35148 ft | 497 kts | 141° |
| 2026-05-03 23:32 | 43.75303 | 17.84144 | 35179 ft | 497 kts | 141° |
| 2026-05-03 23:33 | 43.69732 | 17.89768 | 35161 ft | 500 kts | 141° |
| 2026-05-03 23:33 | 43.64105 | 17.95436 | 35169 ft | 500 kts | 141° |
| 2026-05-03 23:34 | 43.58474 | 18.01095 | 35161 ft | 500 kts | 141° |
| 2026-05-03 23:34 | 43.52842 | 18.06740 | 35155 ft | 501 kts | 141° |
| 2026-05-03 23:35 | 43.47195 | 18.12385 | 35156 ft | 501 kts | 141° |
| 2026-05-03 23:35 | 43.41583 | 18.17983 | 35161 ft | 501 kts | 141° |
| 2026-05-03 23:36 | 43.35933 | 18.23607 | 35169 ft | 501 kts | 141° |
| 2026-05-03 23:36 | 43.30302 | 18.29200 | 35177 ft | 501 kts | 141° |
| 2026-05-03 23:37 | 43.24650 | 18.34801 | 35186 ft | 501 kts | 141° |
| 2026-05-03 23:37 | 43.18990 | 18.40395 | 35182 ft | 501 kts | 141° |
| 2026-05-03 23:38 | 43.13359 | 18.45949 | 35196 ft | 502 kts | 141° |
| 2026-05-03 23:38 | 43.07674 | 18.51542 | 35194 ft | 504 kts | 141° |
| 2026-05-03 23:39 | 43.01985 | 18.57126 | 35197 ft | 504 kts | 141° |
| 2026-05-03 23:39 | 42.96310 | 18.62681 | 35198 ft | 504 kts | 141° |
| 2026-05-03 23:40 | 42.90602 | 18.68257 | 35191 ft | 505 kts | 141° |
| 2026-05-03 23:40 | 42.84882 | 18.73831 | 35200 ft | 505 kts | 141° |
| 2026-05-03 23:41 | 42.79162 | 18.79395 | 35198 ft | 506 kts | 141° |
| 2026-05-03 23:41 | 42.73455 | 18.84932 | 35190 ft | 504 kts | 141° |
| 2026-05-03 23:42 | 42.67737 | 18.90464 | 35184 ft | 504 kts | 141° |
| 2026-05-03 23:42 | 42.62014 | 18.95991 | 35167 ft | 504 kts | 141° |
| 2026-05-03 23:43 | 42.56324 | 19.01475 | 35167 ft | 505 kts | 142° |
| 2026-05-03 23:43 | 42.50569 | 19.07006 | 35162 ft | 506 kts | 142° |
| 2026-05-03 23:44 | 42.44827 | 19.12515 | 35193 ft | 506 kts | 142° |
| 2026-05-03 23:44 | 42.39108 | 19.17983 | 35158 ft | 503 kts | 142° |
| 2026-05-03 23:45 | 42.36247 | 19.20716 | 35013 ft | 504 kts | 142° |
| 2026-05-03 23:45 | 42.33415 | 19.23420 | 34786 ft | 504 kts | 142° |
| 2026-05-03 23:45 | 42.30546 | 19.26156 | 34537 ft | 505 kts | 142° |
| 2026-05-03 23:45 | 42.27728 | 19.28840 | 34305 ft | 506 kts | 142° |
| 2026-05-03 23:46 | 42.24885 | 19.31634 | 34048 ft | 505 kts | 137° |
| 2026-05-03 23:46 | 42.22350 | 19.34870 | 33773 ft | 500 kts | 128° |
| 2026-05-03 23:46 | 42.20153 | 19.38493 | 33501 ft | 497 kts | 123° |
| 2026-05-03 23:46 | 42.18058 | 19.42215 | 33230 ft | 496 kts | 122° |
| 2026-05-03 23:47 | 42.16022 | 19.45977 | 32976 ft | 496 kts | 121° |
| 2026-05-03 23:47 | 42.14016 | 19.49747 | 32737 ft | 495 kts | 120° |
| 2026-05-03 23:47 | 42.12010 | 19.53527 | 32480 ft | 496 kts | 121° |
| 2026-05-03 23:47 | 42.09997 | 19.57307 | 32227 ft | 496 kts | 121° |
| 2026-05-03 23:48 | 42.07978 | 19.61078 | 31968 ft | 497 kts | 121° |
| 2026-05-03 23:48 | 42.05946 | 19.64851 | 31720 ft | 497 kts | 121° |
| 2026-05-03 23:48 | 42.03909 | 19.68617 | 31476 ft | 498 kts | 121° |
| 2026-05-03 23:48 | 42.01896 | 19.72341 | 31224 ft | 497 kts | 120° |
| 2026-05-03 23:49 | 42.00288 | 19.76378 | 30967 ft | 486 kts | 104° |
| 2026-05-03 23:49 | 41.99550 | 19.80733 | 30763 ft | 472 kts | 88° |
| 2026-05-03 23:49 | 41.99712 | 19.85049 | 30533 ft | 456 kts | 73° |
| 2026-05-03 23:49 | 42.00460 | 19.89150 | 30315 ft | 450 kts | 68° |
| 2026-05-03 23:50 | 42.01319 | 19.93195 | 30040 ft | 450 kts | 67° |
| 2026-05-03 23:50 | 42.01897 | 19.95884 | 29865 ft | 451 kts | 68° |
| 2026-05-03 23:50 | 42.03053 | 20.01316 | 29484 ft | 452 kts | 68° |
| 2026-05-03 23:50 | 42.03907 | 20.05379 | 29152 ft | 450 kts | 68° |
| 2026-05-03 23:51 | 42.04746 | 20.09413 | 28304 ft | 444 kts | 69° |
| 2026-05-03 23:51 | 42.05557 | 20.13331 | 27430 ft | 437 kts | 69° |
| 2026-05-03 23:51 | 42.06376 | 20.17286 | 26600 ft | 430 kts | 69° |
| 2026-05-03 23:51 | 42.07152 | 20.21056 | 26094 ft | 417 kts | 69° |
| 2026-05-03 23:52 | 42.07922 | 20.24799 | 25549 ft | 413 kts | 69° |
| 2026-05-03 23:52 | 42.08693 | 20.28534 | 24985 ft | 414 kts | 69° |
| 2026-05-03 23:52 | 42.09459 | 20.32257 | 24421 ft | 411 kts | 69° |
| 2026-05-03 23:52 | 42.10219 | 20.35962 | 23875 ft | 408 kts | 69° |
| 2026-05-03 23:53 | 42.10962 | 20.39607 | 23248 ft | 400 kts | 69° |
| 2026-05-03 23:53 | 42.11697 | 20.43212 | 22713 ft | 399 kts | 69° |
| 2026-05-03 23:53 | 42.12434 | 20.46800 | 22186 ft | 396 kts | 69° |
| 2026-05-03 23:53 | 42.13389 | 20.50235 | 21689 ft | 384 kts | 59° |
| 2026-05-03 23:54 | 42.14701 | 20.53281 | 21179 ft | 370 kts | 53° |
| 2026-05-03 23:54 | 42.16075 | 20.56156 | 20695 ft | 369 kts | 53° |
| 2026-05-03 23:54 | 42.17473 | 20.59047 | 20208 ft | 368 kts | 53° |
| 2026-05-03 23:54 | 42.18870 | 20.61945 | 19723 ft | 367 kts | 53° |
| 2026-05-03 23:55 | 42.20252 | 20.64822 | 19230 ft | 364 kts | 53° |
| 2026-05-03 23:55 | 42.21618 | 20.67673 | 18761 ft | 361 kts | 53° |
| 2026-05-03 23:55 | 42.22976 | 20.70515 | 18219 ft | 359 kts | 53° |
| 2026-05-03 23:55 | 42.24323 | 20.73339 | 17704 ft | 356 kts | 53° |
| 2026-05-03 23:56 | 42.25653 | 20.76131 | 17198 ft | 354 kts | 53° |
| 2026-05-03 23:56 | 42.26983 | 20.78925 | 16693 ft | 351 kts | 53° |
| 2026-05-03 23:56 | 42.28298 | 20.81692 | 16200 ft | 348 kts | 53° |
| 2026-05-03 23:56 | 42.29602 | 20.84435 | 15677 ft | 345 kts | 54° |
| 2026-05-03 23:57 | 42.30877 | 20.87120 | 15204 ft | 342 kts | 54° |
| 2026-05-03 23:57 | 42.32159 | 20.89822 | 14707 ft | 340 kts | 54° |
| 2026-05-03 23:57 | 42.33423 | 20.92490 | 14207 ft | 338 kts | 54° |
| 2026-05-03 23:57 | 42.34690 | 20.95167 | 13653 ft | 336 kts | 54° |
| 2026-05-03 23:58 | 42.35947 | 20.97824 | 13140 ft | 335 kts | 54° |
| 2026-05-03 23:58 | 42.37179 | 21.00433 | 12794 ft | 324 kts | 54° |
| 2026-05-03 23:58 | 42.38347 | 21.02921 | 12701 ft | 304 kts | 54° |
| 2026-05-03 23:58 | 42.39445 | 21.05251 | 12606 ft | 286 kts | 54° |
| 2026-05-03 23:59 | 42.40487 | 21.07462 | 12496 ft | 270 kts | 53° |
| 2026-05-03 23:59 | 42.41478 | 21.09567 | 12281 ft | 262 kts | 53° |
| 2026-05-03 23:59 | 42.42448 | 21.11624 | 12059 ft | 256 kts | 53° |
| 2026-05-03 23:59 | 42.43384 | 21.13610 | 11919 ft | 247 kts | 54° |
| 2026-05-04 00:00 | 42.44303 | 21.15559 | 11840 ft | 248 kts | 54° |
| 2026-05-04 00:00 | 42.45223 | 21.17510 | 11615 ft | 249 kts | 54° |
| 2026-05-04 00:00 | 42.46151 | 21.19488 | 11232 ft | 248 kts | 55° |
| 2026-05-04 00:00 | 42.46895 | 21.21592 | 10900 ft | 252 kts | 69° |
| 2026-05-04 00:01 | 42.47098 | 21.23984 | 10588 ft | 260 kts | 90° |
| 2026-05-04 00:01 | 42.46586 | 21.26356 | 10236 ft | 269 kts | 113° |
| 2026-05-04 00:01 | 42.45385 | 21.28334 | 9857 ft | 277 kts | 134° |
| 2026-05-04 00:01 | 42.43866 | 21.29935 | 9643 ft | 272 kts | 139° |
| 2026-05-04 00:02 | 42.42359 | 21.31412 | 9559 ft | 262 kts | 139° |
| 2026-05-04 00:02 | 42.40894 | 21.32861 | 9301 ft | 261 kts | 139° |
| 2026-05-04 00:02 | 42.39427 | 21.34330 | 8940 ft | 264 kts | 139° |
| 2026-05-04 00:02 | 42.37918 | 21.35765 | 8608 ft | 268 kts | 146° |
| 2026-05-04 00:03 | 42.36165 | 21.36536 | 8268 ft | 274 kts | 174° |
| 2026-05-04 00:03 | 42.34307 | 21.36053 | 7925 ft | 275 kts | 207° |
| 2026-05-04 00:03 | 42.32862 | 21.34429 | 7591 ft | 271 kts | 231° |
| 2026-05-04 00:03 | 42.31733 | 21.32462 | 7267 ft | 269 kts | 235° |
| 2026-05-04 00:04 | 42.30613 | 21.30393 | 6913 ft | 268 kts | 236° |
| 2026-05-04 00:04 | 42.29884 | 21.29049 | 6710 ft | 266 kts | 236° |
| 2026-05-04 00:04 | 42.28990 | 21.26886 | 6376 ft | 265 kts | 253° |
| 2026-05-04 00:04 | 42.28914 | 21.24438 | 5910 ft | 260 kts | 287° |
| 2026-05-04 00:05 | 42.29713 | 21.22334 | 5647 ft | 248 kts | 310° |
| 2026-05-04 00:05 | 42.30825 | 21.20560 | 5286 ft | 246 kts | 314° |
| 2026-05-04 00:05 | 42.31973 | 21.18852 | 4915 ft | 245 kts | 314° |
| 2026-05-04 00:05 | 42.33111 | 21.17153 | 4563 ft | 243 kts | 314° |
| 2026-05-04 00:06 | 42.34233 | 21.15462 | 4250 ft | 239 kts | 313° |
| 2026-05-04 00:06 | 42.35330 | 21.13797 | 4174 ft | 237 kts | 313° |
| 2026-05-04 00:06 | 42.36415 | 21.12144 | 4179 ft | 240 kts | 312° |
| 2026-05-04 00:06 | 42.37527 | 21.10447 | 4182 ft | 240 kts | 313° |
| 2026-05-04 00:07 | 42.38594 | 21.08812 | 4175 ft | 224 kts | 313° |
| 2026-05-04 00:07 | 42.39581 | 21.07297 | 4189 ft | 204 kts | 313° |
| 2026-05-04 00:07 | 42.40500 | 21.05946 | 4094 ft | 188 kts | 319° |
| 2026-05-04 00:07 | 42.41639 | 21.05205 | 3902 ft | 179 kts | 350° |
| 2026-05-04 00:08 | 42.42827 | 21.05060 | 3870 ft | 166 kts | 357° |
| 2026-05-04 00:08 | 42.43957 | 21.04958 | 3887 ft | 157 kts | 356° |
| 2026-05-04 00:08 | 42.44997 | 21.04850 | 3867 ft | 144 kts | 356° |
| 2026-05-04 00:08 | 42.45972 | 21.04744 | 3729 ft | 141 kts | 356° |
| 2026-05-04 00:09 | 42.46944 | 21.04640 | 3554 ft | 138 kts | 356° |
| 2026-05-04 00:09 | 42.47887 | 21.04543 | 3502 ft | 135 kts | 356° |
| 2026-05-04 00:09 | 42.48829 | 21.04447 | 3478 ft | 136 kts | 356° |
| 2026-05-04 00:09 | 42.49775 | 21.04352 | 3285 ft | 136 kts | 356° |
| 2026-05-04 00:10 | 42.50714 | 21.04257 | 3068 ft | 137 kts | 355° |
| 2026-05-04 00:10 | 42.51664 | 21.04160 | 2825 ft | 137 kts | 355° |
| 2026-05-04 00:10 | 42.52617 | 21.04063 | 2586 ft | 138 kts | 355° |
| 2026-05-04 00:10 | 42.53569 | 21.03967 | 2352 ft | 137 kts | 355° |
| 2026-05-04 00:11 | 42.54511 | 21.03869 | 2112 ft | 136 kts | 355° |
| 2026-05-04 00:11 | 42.55432 | 21.03772 | 1894 ft | 132 kts | 356° |
| 2026-05-04 00:11 | 42.56322 | 21.03679 | 1795 ft | 122 kts | 356° |
| 2026-05-04 00:11 | 42.57041 | 21.03614 | 1791 ft | 80 kts | 356° |
| 2026-05-04 00:12 | 42.57440 | 21.03572 | 1792 ft | 48 kts | 355° |
| 2026-05-04 00:12 | 42.57734 | 21.03531 | 1789 ft | 38 kts | 346° |
| 2026-05-04 00:12 | 42.57930 | 21.03403 | 1792 ft | 22 kts | 324° |
| 2026-05-04 00:12 | 42.58005 | 21.03298 | 1792 ft | 11 kts | 256° |
| 2026-05-04 00:13 | 42.57943 | 21.03275 | 1792 ft | 10 kts | 174° |
| 2026-05-04 00:13 | 42.57868 | 21.03285 | 1791 ft | 11 kts | 175° |
| 2026-05-04 00:13 | 42.57792 | 21.03293 | 1790 ft | 11 kts | 176° |
| 2026-05-04 00:13 | 42.57744 | 21.03257 | 1790 ft | 7 kts | 258° |
| 2026-05-04 00:14 | 42.57718 | 21.03211 | 1792 ft | 6 kts | 205° |
| 2026-05-04 00:14 | 42.57679 | 21.03205 | 1791 ft | 6 kts | 176° |
| 2026-05-04 00:14 | 42.57639 | 21.03209 | 1792 ft | 6 kts | 176° |
| 2026-05-04 00:14 | 42.57592 | 21.03213 | 1792 ft | 10 kts | 176° |
| 2026-05-04 00:15 | 42.57520 | 21.03221 | 1790 ft | 11 kts | 175° |
| 2026-05-04 00:15 | 42.57447 | 21.03229 | 1792 ft | 11 kts | 176° |
| 2026-05-04 00:15 | 42.57378 | 21.03236 | 1792 ft | 8 kts | 175° |
| 2026-05-04 00:15 | 42.57348 | 21.03205 | 1792 ft | 5 kts | 252° |
| 2026-05-04 00:16 | 42.57343 | 21.03159 | 1793 ft | 5 kts | 265° |
| 2026-05-04 00:16 | 42.57342 | 21.03140 | 1793 ft | 2 kts | 265° |
| 2026-05-04 00:16 | 42.57342 | 21.03138 | 1791 ft | 0 kts | 265° |
| 2026-05-04 00:21 | 42.57342 | 21.03139 | 1791 ft | 0 kts | 266° |